Time;durP1;ratioP1;P1;durP2;ratioP2;P2;SDS_P1;SDS_P2;PMS_P1;PMS_P2;Temp;Humidity;BMP_temperature;BMP_pressure;BME280_temperature;BME280_humidity;BME280_pressure;Samples;Min_cycle;Max_cycle;Signal;HPM_P1;HPM_P2
2021/01/06 00:01:21;;;;;;;44.58;22.50;;;1.10;99.90;;;;;;5007978;28;20049;-70
2021/01/06 00:03:49;;;;;;;30.35;15.10;;;1.20;99.90;;;;;;5008392;28;20113;-71
2021/01/06 00:06:21;;;;;;;72.70;36.78;;;1.30;99.90;;;;;;5008497;28;20045;-70
2021/01/06 00:08:47;;;;;;;31.35;16.40;;;1.20;99.90;;;;;;5006789;28;20046;-70
2021/01/06 00:11:17;;;;;;;55.35;27.13;;;1.20;99.90;;;;;;4990226;28;20045;-70
2021/01/06 00:13:47;;;;;;;60.80;29.15;;;1.10;99.90;;;;;;4996491;28;20384;-70
2021/01/06 00:16:13;;;;;;;71.50;35.30;;;1.10;99.90;;;;;;4990115;28;20144;-70
2021/01/06 00:18:39;;;;;;;109.22;49.13;;;1.10;99.90;;;;;;5007983;28;20088;-70
2021/01/06 00:21:06;;;;;;;46.03;23.00;;;1.10;99.90;;;;;;4991436;28;20157;-70
2021/01/06 00:23:33;;;;;;;208.88;88.53;;;1.10;99.90;;;;;;4991068;28;20546;-70
2021/01/06 00:26:01;;;;;;;116.88;49.95;;;1.10;99.90;;;;;;5008463;28;20042;-71
2021/01/06 00:28:27;;;;;;;85.18;34.97;;;1.10;99.90;;;;;;5007842;28;20061;-72
2021/01/06 00:30:56;;;;;;;49.35;26.33;;;1.10;99.90;;;;;;5007347;28;20132;-72
2021/01/06 00:33:29;;;;;;;40.13;21.67;;;1.10;99.90;;;;;;5008037;28;20306;-72
2021/01/06 00:35:59;;;;;;;29.88;15.55;;;1.20;99.90;;;;;;5008298;28;20046;-72
2021/01/06 00:38:27;;;;;;;31.70;17.38;;;1.20;99.90;;;;;;5007556;28;20070;-72
2021/01/06 00:40:54;;;;;;;53.33;32.53;;;1.20;99.90;;;;;;5007517;28;20471;-72
2021/01/06 00:43:20;;;;;;;35.53;20.85;;;1.10;99.90;;;;;;5007484;28;20054;-72
2021/01/06 00:45:47;;;;;;;27.67;15.25;;;1.10;99.90;;;;;;5007867;28;20150;-72
2021/01/06 00:48:14;;;;;;;31.55;17.55;;;1.10;99.90;;;;;;4989070;28;20550;-72
2021/01/06 00:50:41;;;;;;;27.80;16.60;;;1.10;99.90;;;;;;5007876;28;20165;-72
2021/01/06 00:53:22;;;;;;;112.35;54.70;;;1.20;99.90;;;;;;5007885;28;20069;-72
2021/01/06 00:55:50;;;;;;;50.75;27.20;;;1.20;99.90;;;;;;5007183;28;20124;-72
2021/01/06 00:58:17;;;;;;;32.65;16.98;;;1.10;99.90;;;;;;5007205;28;20056;-72
2021/01/06 01:00:45;;;;;;;27.17;15.20;;;1.10;99.90;;;;;;5006657;28;20045;-72
2021/01/06 01:03:12;;;;;;;21.67;13.23;;;1.00;99.90;;;;;;5007496;28;20073;-72
2021/01/06 01:05:38;;;;;;;49.47;24.63;;;1.10;99.90;;;;;;5007081;28;20053;-72
2021/01/06 01:08:07;;;;;;;38.13;19.10;;;1.10;99.90;;;;;;5007873;28;20116;-73
2021/01/06 01:10:43;;;;;;;16.60;9.55;;;1.10;99.90;;;;;;5007641;28;20081;-72
2021/01/06 01:13:18;;;;;;;47.35;21.45;;;1.20;99.90;;;;;;5007171;28;20200;-72
2021/01/06 01:15:46;;;;;;;27.35;12.75;;;1.30;99.90;;;;;;5008164;28;20081;-73
2021/01/06 01:18:17;;;;;;;32.58;15.07;;;1.10;99.90;;;;;;5006703;28;20494;-72
2021/01/06 01:20:49;;;;;;;174.60;61.42;;;1.10;99.90;;;;;;5006947;28;20455;-72
2021/01/06 01:23:18;;;;;;;51.17;23.30;;;1.20;99.90;;;;;;5000499;28;20129;-72
2021/01/06 01:25:45;;;;;;;35.00;16.02;;;1.20;99.90;;;;;;5007435;28;20070;-72
2021/01/06 01:28:13;;;;;;;71.00;30.50;;;1.10;99.90;;;;;;5007279;28;20115;-72
2021/01/06 01:30:39;;;;;;;36.00;18.00;;;1.10;99.90;;;;;;5007565;28;20145;-72
2021/01/06 01:33:05;;;;;;;30.30;16.83;;;1.10;99.90;;;;;;5010850;28;20503;-72
2021/01/06 01:35:33;;;;;;;26.02;14.60;;;1.00;99.90;;;;;;5012042;28;20078;-73
2021/01/06 01:38:02;;;;;;;38.63;19.70;;;1.00;99.90;;;;;;5010953;28;20049;-73
2021/01/06 01:40:37;;;;;;;17.80;10.13;;;1.00;99.90;;;;;;5009918;28;20469;-72
2021/01/06 01:43:14;;;;;;;38.42;19.58;;;1.10;99.90;;;;;;5008790;28;20126;-73
2021/01/06 01:45:46;;;;;;;25.10;13.18;;;1.00;99.90;;;;;;5010567;28;20073;-73
2021/01/06 01:48:23;;;;;;;23.90;14.30;;;1.00;99.90;;;;;;5010470;28;20096;-73
2021/01/06 01:50:50;;;;;;;30.40;16.63;;;0.90;99.90;;;;;;5009855;28;20145;-73
2021/01/06 01:53:22;;;;;;;17.13;9.95;;;1.00;99.90;;;;;;5011476;28;20094;-72
2021/01/06 01:55:50;;;;;;;38.53;19.73;;;1.00;99.90;;;;;;5010664;28;20049;-72
2021/01/06 01:58:23;;;;;;;22.38;13.27;;;1.00;99.90;;;;;;5010194;28;20076;-73
2021/01/06 02:00:50;;;;;;;;;;;1.00;99.90;;;;;;5010331;28;20133;-73
2021/01/06 02:03:54;;;;;;;36.95;16.30;;;1.00;99.90;;;;;;5009117;28;20012;-72
2021/01/06 02:06:28;;;;;;;30.33;13.73;;;1.10;99.90;;;;;;5007326;28;20133;-72
2021/01/06 02:09:02;;;;;;;19.10;10.60;;;1.10;99.90;;;;;;5011183;28;20081;-73
2021/01/06 02:11:41;;;;;;;32.45;16.65;;;1.10;99.90;;;;;;5011037;28;20045;-72
2021/01/06 02:14:16;;;;;;;34.28;17.38;;;1.10;99.90;;;;;;5008902;28;20506;-72
2021/01/06 02:17:08;;;;;;;28.23;14.98;;;1.00;99.90;;;;;;5009082;28;20133;-72
2021/01/06 02:19:45;;;;;;;21.65;12.68;;;1.10;99.90;;;;;;5010606;28;20088;-73
2021/01/06 02:22:19;;;;;;;22.25;12.80;;;1.10;99.90;;;;;;4992259;28;20046;-73
2021/01/06 02:24:49;;;;;;;42.13;19.90;;;1.10;99.90;;;;;;5010920;28;20093;-73
2021/01/06 02:27:18;;;;;;;17.35;10.82;;;1.00;99.90;;;;;;5009221;28;20515;-73
2021/01/06 02:29:45;;;;;;;22.67;11.75;;;1.10;99.90;;;;;;5010919;28;20474;-73
2021/01/06 02:32:12;;;;;;;16.30;9.27;;;1.00;99.90;;;;;;5010494;28;20066;-73
2021/01/06 02:34:39;;;;;;;31.30;15.60;;;1.10;99.90;;;;;;5004975;28;20070;-73
2021/01/06 02:37:07;;;;;;;29.90;16.20;;;1.10;99.90;;;;;;5009351;28;20087;-73
2021/01/06 02:39:35;;;;;;;15.98;10.13;;;1.10;99.90;;;;;;5009815;28;20466;-73
2021/01/06 02:42:02;;;;;;;27.80;13.77;;;1.10;99.90;;;;;;5008502;28;20571;-73
2021/01/06 02:44:29;;;;;;;25.40;14.07;;;1.10;99.90;;;;;;5010961;28;20119;-72
2021/01/06 02:46:56;;;;;;;21.17;12.15;;;1.10;99.90;;;;;;5008833;28;20123;-72
2021/01/06 02:49:23;;;;;;;17.30;9.63;;;1.10;99.90;;;;;;5009480;28;20133;-73
2021/01/06 02:52:02;;;;;;;16.17;9.80;;;1.10;99.90;;;;;;5010751;28;20049;-73
2021/01/06 02:54:34;;;;;;;13.65;8.40;;;1.10;99.90;;;;;;5009526;28;20120;-72
2021/01/06 02:57:02;;;;;;;14.18;9.05;;;1.10;99.90;;;;;;5010098;28;20104;-72
2021/01/06 02:59:34;;;;;;;20.63;11.20;;;1.20;99.90;;;;;;5010662;28;20096;-72
2021/01/06 03:02:02;;;;;;;21.35;11.57;;;1.10;99.90;;;;;;4992211;28;20080;-73
2021/01/06 03:04:34;;;;;;;24.50;14.57;;;1.00;99.90;;;;;;5011188;28;20415;-73
2021/01/06 03:07:03;;;;;;;20.80;10.23;;;1.00;99.90;;;;;;5008562;28;20092;-73
2021/01/06 03:09:35;;;;;;;14.63;9.18;;;1.10;99.90;;;;;;5009079;28;20488;-73
2021/01/06 03:12:07;;;;;;;16.35;9.13;;;1.10;99.90;;;;;;5009900;28;20065;-73
2021/01/06 03:14:34;;;;;;;13.82;8.38;;;1.10;99.90;;;;;;4992930;28;20140;-73
2021/01/06 03:17:03;;;;;;;20.85;11.50;;;1.10;99.90;;;;;;5008160;28;20078;-73
2021/01/06 03:19:33;;;;;;;21.40;12.55;;;1.10;99.90;;;;;;5007145;28;20140;-73
2021/01/06 03:22:03;;;;;;;25.70;13.70;;;1.10;99.90;;;;;;5008953;28;20194;-73
2021/01/06 03:24:37;;;;;;;17.38;10.77;;;1.10;99.90;;;;;;5008922;28;20069;-73
2021/01/06 03:27:04;;;;;;;24.80;13.77;;;1.10;99.90;;;;;;5009097;28;20077;-73
2021/01/06 03:29:34;;;;;;;19.48;11.55;;;1.00;99.90;;;;;;5008496;28;20073;-73
2021/01/06 03:32:07;;;;;;;20.02;11.07;;;1.00;99.90;;;;;;5004302;28;20387;-72
2021/01/06 03:34:42;;;;;;;18.50;10.63;;;1.10;99.90;;;;;;5009231;28;20487;-72
2021/01/06 03:37:19;;;;;;;23.02;12.52;;;1.10;99.90;;;;;;5008457;28;20069;-72
2021/01/06 03:39:54;;;;;;;14.77;8.68;;;1.10;99.90;;;;;;5008287;28;20084;-72
2021/01/06 03:42:22;;;;;;;19.23;11.75;;;1.10;99.90;;;;;;5008473;28;20081;-72
2021/01/06 03:44:50;;;;;;;19.23;10.50;;;1.10;99.90;;;;;;5009842;28;20080;-72
2021/01/06 03:47:26;;;;;;;14.48;9.38;;;1.10;99.90;;;;;;5008776;28;20124;-72
2021/01/06 03:50:10;;;;;;;15.65;8.98;;;1.20;99.90;;;;;;5008691;28;20074;-72
2021/01/06 03:53:03;;;;;;;16.17;9.25;;;1.20;99.90;;;;;;5008406;28;20134;-72
2021/01/06 03:55:52;;;;;;;24.42;12.88;;;1.20;99.90;;;;;;5006068;28;20073;-72
2021/01/06 03:58:44;;;;;;;17.58;10.40;;;1.00;99.90;;;;;;5008465;28;20045;-72
2021/01/06 04:01:54;;;;;;;20.33;10.88;;;1.00;99.90;;;;;;4959864;28;20461;-73
2021/01/06 04:04:38;;;;;;;14.98;8.27;;;1.00;99.90;;;;;;5007449;28;20077;-72
2021/01/06 04:07:26;;;;;;;18.63;10.60;;;1.00;99.90;;;;;;5006659;28;20077;-72
2021/01/06 04:10:08;;;;;;;14.13;9.23;;;0.90;99.90;;;;;;5007557;28;20046;-72
2021/01/06 04:12:35;;;;;;;16.05;9.10;;;0.90;99.90;;;;;;5007357;28;20046;-72
2021/01/06 04:15:02;;;;;;;14.07;8.32;;;1.00;99.90;;;;;;5008532;28;20132;-72
2021/01/06 04:17:35;;;;;;;16.48;9.45;;;1.00;99.90;;;;;;5006584;28;20095;-72
2021/01/06 04:20:19;;;;;;;14.60;8.85;;;0.90;99.90;;;;;;5002140;28;20140;-72
2021/01/06 04:22:53;;;;;;;16.58;10.32;;;0.90;99.90;;;;;;5005730;28;20085;-72
2021/01/06 04:25:25;;;;;;;19.05;10.95;;;0.90;99.90;;;;;;5007612;28;20046;-72
2021/01/06 04:28:08;;;;;;;22.55;11.15;;;0.90;99.90;;;;;;5007314;28;20053;-72
2021/01/06 04:30:34;;;;;;;12.88;8.15;;;1.00;99.90;;;;;;5006932;28;20492;-72
2021/01/06 04:33:05;;;;;;;17.02;10.57;;;1.00;99.90;;;;;;5007878;28;20042;-72
2021/01/06 04:35:32;;;;;;;15.63;8.35;;;1.00;99.90;;;;;;5006976;28;20096;-73
2021/01/06 04:37:59;;;;;;;17.63;10.63;;;1.00;99.90;;;;;;5007334;28;20081;-73
2021/01/06 04:40:34;;;;;;;19.48;11.00;;;0.90;99.90;;;;;;5009303;28;20109;-73
2021/01/06 04:43:39;;;;;;;17.67;10.82;;;1.00;99.90;;;;;;5007984;28;20058;-72
2021/01/06 04:46:09;;;;;;;18.90;11.15;;;1.00;99.90;;;;;;5004544;28;20082;-73
2021/01/06 04:49:05;;;;;;;15.20;9.10;;;1.00;99.90;;;;;;5007553;28;20484;-73
2021/01/06 04:51:32;;;;;;;19.95;10.93;;;1.00;99.90;;;;;;4987069;28;20495;-72
2021/01/06 04:54:42;;;;;;;18.45;10.77;;;0.90;99.90;;;;;;5006583;28;20538;-73
2021/01/06 04:57:23;;;;;;;14.90;8.95;;;0.90;99.90;;;;;;5000344;28;20249;-72
2021/01/06 05:00:11;;;;;;;15.48;8.73;;;0.90;99.90;;;;;;5006020;28;20538;-72
2021/01/06 05:02:41;;;;;;;18.38;10.13;;;1.00;99.90;;;;;;5006744;28;20146;-72
2021/01/06 05:05:13;;;;;;;16.25;9.65;;;1.00;99.90;;;;;;5007901;28;20065;-72
2021/01/06 05:08:01;;;;;;;21.85;11.82;;;1.00;99.90;;;;;;5011177;28;20077;-72
2021/01/06 05:10:51;;;;;;;12.13;7.10;;;0.90;99.90;;;;;;5010666;28;20078;-73
2021/01/06 05:13:40;;;;;;;28.50;12.77;;;1.00;99.90;;;;;;5010349;28;20070;-73
2021/01/06 05:16:16;;;;;;;18.08;8.93;;;0.90;99.90;;;;;;5010768;28;20126;-73
2021/01/06 05:18:44;;;;;;;34.95;16.88;;;1.00;99.90;;;;;;5011759;28;20069;-73
2021/01/06 05:21:18;;;;;;;38.90;19.30;;;1.00;99.90;;;;;;4992264;28;20125;-72
2021/01/06 05:23:47;;;;;;;13.32;7.90;;;1.00;99.90;;;;;;5011478;28;20042;-72
2021/01/06 05:26:14;;;;;;;18.42;9.80;;;1.00;99.90;;;;;;4988676;28;20042;-72
2021/01/06 05:28:43;;;;;;;20.95;11.98;;;1.10;99.90;;;;;;5011231;28;20046;-72
2021/01/06 05:31:09;;;;;;;28.38;15.05;;;1.00;99.90;;;;;;5010231;28;20089;-73
2021/01/06 05:33:40;;;;;;;16.75;9.43;;;0.90;99.90;;;;;;5012079;28;20124;-73
2021/01/06 05:36:07;;;;;;;17.70;10.57;;;0.90;99.90;;;;;;5009018;28;20439;-73
2021/01/06 05:38:37;;;;;;;26.00;13.20;;;0.90;99.90;;;;;;5010975;28;20164;-73
2021/01/06 05:41:03;;;;;;;24.15;13.00;;;1.00;99.90;;;;;;4992513;28;20104;-73
2021/01/06 05:43:30;;;;;;;11.95;7.63;;;0.90;99.90;;;;;;5010113;28;20128;-72
2021/01/06 05:46:03;;;;;;;10.82;6.85;;;1.00;99.90;;;;;;5010080;28;20563;-72
2021/01/06 05:48:44;;;;;;;21.23;10.93;;;1.10;99.90;;;;;;5003466;28;20049;-73
2021/01/06 05:51:31;;;;;;;22.70;11.90;;;1.20;99.90;;;;;;4995856;28;20069;-72
2021/01/06 05:54:31;;;;;;;25.23;14.35;;;1.10;99.90;;;;;;5011311;28;20642;-72
2021/01/06 05:57:22;;;;;;;20.00;9.88;;;1.10;99.90;;;;;;5003593;28;20046;-72
2021/01/06 05:59:49;;;;;;;25.33;11.60;;;1.10;99.90;;;;;;5010522;28;20123;-72
2021/01/06 06:02:29;;;;;;;26.30;12.80;;;1.20;99.90;;;;;;5010967;28;20049;-73
2021/01/06 06:05:20;;;;;;;14.98;8.55;;;1.20;99.90;;;;;;5011421;28;20078;-73
2021/01/06 06:08:27;;;;;;;15.38;8.60;;;1.20;99.90;;;;;;5008454;28;20126;-73
2021/01/06 06:11:14;;;;;;;12.15;7.18;;;1.20;99.90;;;;;;4998722;28;20233;-73
2021/01/06 06:13:46;;;;;;;15.55;8.82;;;1.30;99.90;;;;;;4992077;28;20082;-73
2021/01/06 06:16:43;;;;;;;15.73;8.70;;;1.30;99.90;;;;;;5011193;28;20463;-73
2021/01/06 06:19:21;;;;;;;25.23;12.85;;;1.20;99.90;;;;;;5006289;28;20049;-73
2021/01/06 06:22:05;;;;;;;14.95;8.75;;;1.20;99.90;;;;;;5009872;28;20050;-73
2021/01/06 06:24:40;;;;;;;24.92;13.00;;;1.10;99.90;;;;;;5010172;28;20598;-73
2021/01/06 06:27:12;;;;;;;22.13;11.73;;;1.10;99.90;;;;;;5009332;28;20077;-73
2021/01/06 06:30:02;;;;;;;21.55;12.63;;;1.10;99.90;;;;;;5009479;28;20522;-72
2021/01/06 06:32:30;;;;;;;21.35;11.60;;;1.10;99.90;;;;;;5010138;28;20147;-72
2021/01/06 06:35:26;;;;;;;35.15;17.58;;;1.00;99.90;;;;;;5009439;28;20114;-73
2021/01/06 06:37:57;;;;;;;11.98;6.75;;;1.10;99.90;;;;;;4992463;28;20119;-73
2021/01/06 06:40:44;;;;;;;19.27;10.85;;;1.20;99.90;;;;;;5009745;28;20129;-73
2021/01/06 06:43:25;;;;;;;22.08;12.05;;;1.10;99.90;;;;;;4999963;28;20496;-73
2021/01/06 06:46:11;;;;;;;18.13;10.43;;;1.10;99.90;;;;;;5007480;28;20137;-73
2021/01/06 06:48:53;;;;;;;31.45;13.88;;;1.10;99.90;;;;;;5009656;28;20104;-72
2021/01/06 06:51:33;;;;;;;13.80;8.27;;;1.10;99.90;;;;;;5009172;28;20045;-72
2021/01/06 06:54:37;;;;;;;14.90;8.10;;;1.10;99.90;;;;;;4997810;28;20066;-72
2021/01/06 06:57:31;;;;;;;10.90;6.97;;;1.20;99.90;;;;;;5008305;28;20486;-72
2021/01/06 07:00:06;;;;;;;11.60;6.35;;;1.20;99.90;;;;;;5006415;28;20475;-72
2021/01/06 07:02:46;;;;;;;13.57;7.15;;;1.20;99.90;;;;;;5007367;28;20093;-72
2021/01/06 07:05:40;;;;;;;25.23;12.63;;;1.20;99.90;;;;;;4997825;28;20077;-72
2021/01/06 07:08:16;;;;;;;17.58;8.93;;;1.20;99.90;;;;;;5009435;28;20073;-72
2021/01/06 07:11:16;;;;;;;17.52;9.98;;;1.20;99.90;;;;;;5008862;28;20321;-72
2021/01/06 07:13:46;;;;;;;20.42;11.77;;;1.20;99.90;;;;;;5007365;28;20537;-72
2021/01/06 07:16:26;;;;;;;23.90;12.55;;;1.20;99.90;;;;;;5009074;28;20042;-72
2021/01/06 07:18:53;;;;;;;18.38;10.30;;;1.20;99.90;;;;;;5009348;28;20074;-72
2021/01/06 07:21:22;;;;;;;19.00;10.32;;;1.20;99.90;;;;;;5022253;28;20056;-72
2021/01/06 07:24:07;;;;;;;18.00;9.48;;;1.20;99.90;;;;;;5008572;28;20077;-72
2021/01/06 07:26:58;;;;;;;22.60;12.10;;;1.20;99.90;;;;;;5008295;28;20534;-72
2021/01/06 07:29:32;;;;;;;13.23;8.00;;;1.20;99.90;;;;;;4997017;28;20156;-72
2021/01/06 07:32:10;;;;;;;29.85;15.48;;;1.30;99.90;;;;;;5008673;28;20122;-72
2021/01/06 07:34:52;;;;;;;38.03;16.98;;;1.20;99.90;;;;;;5009463;28;20049;-72
2021/01/06 07:37:36;;;;;;;35.45;19.80;;;1.20;99.90;;;;;;5008050;28;20046;-72
2021/01/06 07:40:07;;;;;;;29.95;15.50;;;1.10;99.90;;;;;;5008335;28;20127;-71
2021/01/06 07:42:40;;;;;;;19.63;9.50;;;1.20;99.90;;;;;;5006644;28;20061;-71
2021/01/06 07:45:15;;;;;;;14.13;8.93;;;1.20;99.90;;;;;;5010754;28;20455;-71
2021/01/06 07:47:51;;;;;;;22.50;11.65;;;1.30;99.90;;;;;;5012229;28;20378;-71
2021/01/06 07:50:23;;;;;;;16.63;8.80;;;1.30;99.90;;;;;;5006798;28;20129;-71
2021/01/06 07:52:54;;;;;;;23.10;11.82;;;1.30;99.90;;;;;;5006240;28;20062;-71
2021/01/06 07:55:35;;;;;;;16.13;8.80;;;1.30;99.90;;;;;;5008293;28;20085;-71
2021/01/06 07:58:14;;;;;;;16.35;9.23;;;1.30;99.90;;;;;;5007381;28;20168;-71
2021/01/06 08:00:57;;;;;;;15.57;9.23;;;1.30;99.90;;;;;;5007210;28;20050;-71
2021/01/06 08:03:34;;;;;;;25.10;12.93;;;1.30;99.90;;;;;;5005573;28;20045;-72
2021/01/06 08:06:02;;;;;;;22.58;12.07;;;1.20;99.90;;;;;;5008183;28;20049;-72
2021/01/06 08:08:46;;;;;;;16.45;9.48;;;1.20;99.90;;;;;;5007674;28;20081;-72
2021/01/06 08:11:16;;;;;;;18.40;10.20;;;1.20;99.90;;;;;;4998386;28;20527;-72
2021/01/06 08:13:48;;;;;;;22.20;11.95;;;1.20;99.90;;;;;;5005568;28;20136;-72
2021/01/06 08:16:31;;;;;;;16.73;10.43;;;1.20;99.90;;;;;;5007259;28;20096;-72
2021/01/06 08:19:04;;;;;;;11.43;7.50;;;1.10;99.90;;;;;;5008699;28;20475;-72
2021/01/06 08:21:48;;;;;;;16.67;9.50;;;1.20;99.90;;;;;;5005113;28;20057;-72
2021/01/06 08:24:20;;;;;;;15.80;9.00;;;1.20;99.90;;;;;;5007496;28;20578;-72
2021/01/06 08:26:53;;;;;;;18.70;9.43;;;1.20;99.90;;;;;;5008140;28;20111;-72
2021/01/06 08:29:39;;;;;;;11.57;7.33;;;1.20;99.90;;;;;;4990406;28;20568;-73
2021/01/06 08:32:22;;;;;;;14.40;8.52;;;1.30;99.90;;;;;;5006837;28;20053;-72
2021/01/06 08:35:04;;;;;;;17.63;10.13;;;1.30;99.90;;;;;;4990670;28;20475;-72
2021/01/06 08:37:34;;;;;;;12.13;7.47;;;1.30;99.90;;;;;;5007747;28;20773;-72
2021/01/06 08:40:04;;;;;;;14.52;8.27;;;1.40;99.90;;;;;;4990081;28;20460;-72
2021/01/06 08:42:46;;;;;;;12.73;8.20;;;1.40;99.90;;;;;;5007647;28;20057;-72
2021/01/06 08:45:26;;;;;;;18.65;10.45;;;1.40;99.90;;;;;;4990822;28;20045;-72
2021/01/06 08:47:53;;;;;;;15.02;8.55;;;1.30;99.90;;;;;;5007916;28;20042;-72
2021/01/06 08:50:34;;;;;;;15.18;9.02;;;1.40;99.90;;;;;;5006998;28;20471;-72
2021/01/06 08:53:02;;;;;;;16.23;9.40;;;1.40;99.90;;;;;;5006938;28;20116;-72
2021/01/06 08:55:39;;;;;;;14.35;7.53;;;1.40;99.90;;;;;;5007840;28;20424;-72
2021/01/06 08:58:10;;;;;;;16.00;9.00;;;1.40;99.90;;;;;;5008457;28;20088;-72
2021/01/06 09:00:38;;;;;;;16.27;9.25;;;1.30;99.90;;;;;;5006499;28;20050;-72
2021/01/06 09:03:10;;;;;;;13.57;8.40;;;1.40;99.90;;;;;;4990948;28;20073;-72
2021/01/06 09:05:48;;;;;;;11.88;7.05;;;1.40;99.90;;;;;;5006824;28;20085;-72
2021/01/06 09:08:21;;;;;;;13.68;8.15;;;1.50;99.90;;;;;;4999587;28;20050;-72
2021/01/06 09:11:01;;;;;;;13.23;8.05;;;1.50;99.90;;;;;;5007546;28;20622;-72
2021/01/06 09:13:43;;;;;;;14.32;8.85;;;1.40;99.90;;;;;;5006225;28;20108;-72
2021/01/06 09:16:21;;;;;;;11.35;7.43;;;1.30;99.90;;;;;;5007563;28;20049;-72
2021/01/06 09:19:00;;;;;;;;;;;1.40;99.90;;;;;;5007775;28;20116;-72
2021/01/06 09:21:32;;;;;;;10.50;5.97;;;1.50;99.90;;;;;;4989042;28;19957;-72
2021/01/06 09:24:24;;;;;;;11.02;6.93;;;1.50;99.90;;;;;;4990923;28;20112;-72
2021/01/06 09:26:56;;;;;;;11.82;7.28;;;1.50;99.90;;;;;;5007149;28;20061;-72
2021/01/06 09:29:26;;;;;;;14.48;7.22;;;1.60;99.90;;;;;;5006620;28;20104;-72
2021/01/06 09:31:59;;;;;;;13.40;7.50;;;1.60;99.90;;;;;;5007042;28;20074;-72
2021/01/06 09:34:32;;;;;;;11.93;7.10;;;1.60;99.90;;;;;;5007855;28;20543;-72
2021/01/06 09:36:59;;;;;;;10.52;6.47;;;1.60;99.90;;;;;;5006377;28;20045;-72
2021/01/06 09:39:29;;;;;;;12.68;7.50;;;1.60;99.90;;;;;;5007978;28;20111;-72
2021/01/06 09:41:57;;;;;;;16.02;7.72;;;1.60;99.90;;;;;;5006914;28;20115;-72
2021/01/06 09:44:24;;;;;;;13.38;9.05;;;1.60;99.90;;;;;;5006994;28;20061;-72
2021/01/06 09:46:56;;;;;;;12.70;7.72;;;1.60;99.90;;;;;;5006724;28;20081;-72
2021/01/06 09:49:36;;;;;;;17.70;10.48;;;1.60;99.90;;;;;;5007850;28;20062;-72
2021/01/06 09:52:20;;;;;;;22.48;12.95;;;1.60;99.90;;;;;;5006620;28;20046;-72
2021/01/06 09:54:50;;;;;;;69.43;32.60;;;1.60;99.90;;;;;;5009277;28;20054;-72
2021/01/06 09:57:19;;;;;;;26.15;14.23;;;1.60;99.90;;;;;;5010423;28;20081;-72
2021/01/06 09:59:49;;;;;;;31.05;14.95;;;1.60;99.90;;;;;;5011297;28;20617;-72
2021/01/06 10:02:26;;;;;;;25.05;12.95;;;1.70;99.90;;;;;;4991552;28;20057;-72
2021/01/06 10:04:57;;;;;;;19.70;10.50;;;1.70;99.90;;;;;;5005332;28;20060;-72
2021/01/06 10:07:23;;;;;;;15.15;8.63;;;1.80;99.90;;;;;;5009324;28;20065;-72
2021/01/06 10:10:01;;;;;;;15.45;8.88;;;1.90;99.90;;;;;;5008850;28;20045;-73
2021/01/06 10:13:07;;;;;;;18.45;9.18;;;1.90;99.90;;;;;;5009045;28;20050;-73
2021/01/06 10:15:37;;;;;;;13.65;8.32;;;1.90;99.90;;;;;;4990560;28;20108;-73
2021/01/06 10:18:32;;;;;;;27.90;14.13;;;1.90;99.90;;;;;;5009308;28;20053;-73
2021/01/06 10:21:13;;;;;;;44.63;20.52;;;1.90;99.90;;;;;;5010450;28;20128;-72
2021/01/06 10:24:13;;;;;;;72.28;39.08;;;1.70;99.90;;;;;;4993263;28;20145;-71
2021/01/06 10:27:02;;;;;;;38.67;18.88;;;1.70;99.90;;;;;;5008619;28;20053;-72
2021/01/06 10:29:28;;;;;;;33.83;16.77;;;1.70;99.90;;;;;;5001591;28;20130;-72
2021/01/06 10:32:12;;;;;;;27.05;13.80;;;1.60;99.90;;;;;;5010441;28;20439;-72
2021/01/06 10:34:42;;;;;;;18.63;9.95;;;1.60;99.90;;;;;;5010336;28;20183;-72
2021/01/06 10:37:19;;;;;;;13.35;7.95;;;1.70;99.90;;;;;;5009674;28;20139;-72
2021/01/06 10:39:53;;;;;;;23.77;11.55;;;1.70;99.90;;;;;;5009251;28;20131;-72
2021/01/06 10:42:20;;;;;;;13.63;8.13;;;1.70;99.90;;;;;;5010537;28;20066;-72
2021/01/06 10:45:11;;;;;;;15.85;7.75;;;1.70;99.90;;;;;;5009936;28;20045;-72
2021/01/06 10:47:50;;;;;;;18.35;9.50;;;1.70;99.90;;;;;;5009789;28;20144;-72
2021/01/06 10:50:23;;;;;;;18.50;9.50;;;1.70;99.90;;;;;;5009814;28;20073;-72
2021/01/06 10:52:58;;;;;;;14.23;7.95;;;1.80;99.90;;;;;;5009456;28;20049;-72
2021/01/06 10:55:27;;;;;;;12.50;6.47;;;1.90;99.90;;;;;;5009407;28;20049;-72
2021/01/06 10:58:03;;;;;;;18.40;9.65;;;1.80;99.90;;;;;;5007982;28;20084;-72
2021/01/06 11:00:49;;;;;;;16.23;9.18;;;1.90;99.90;;;;;;5010348;28;20404;-72
2021/01/06 11:03:42;;;;;;;34.00;14.90;;;1.90;99.90;;;;;;4988096;28;20136;-72
2021/01/06 11:06:21;;;;;;;20.63;10.43;;;1.90;99.90;;;;;;5006695;28;20186;-72
2021/01/06 11:09:23;;;;;;;17.65;9.55;;;2.00;99.90;;;;;;5009131;28;20095;-72
2021/01/06 11:12:25;;;;;;;13.88;8.00;;;2.00;99.90;;;;;;4995627;28;20069;-72
2021/01/06 11:15:10;;;;;;;12.60;7.07;;;2.00;99.90;;;;;;5007869;28;20112;-73
2021/01/06 11:17:39;;;;;;;10.93;6.35;;;2.00;99.90;;;;;;5008003;28;20564;-71
2021/01/06 11:20:30;;;;;;;13.80;8.10;;;2.10;99.90;;;;;;5008925;28;20084;-71
2021/01/06 11:23:35;;;;;;;12.30;7.25;;;2.00;99.90;;;;;;5004312;28;20133;-71
2021/01/06 11:26:23;;;;;;;10.45;6.63;;;2.00;99.90;;;;;;5008481;28;20131;-72
2021/01/06 11:29:11;;;;;;;28.52;13.90;;;2.00;99.90;;;;;;4990645;28;20515;-72
2021/01/06 11:32:00;;;;;;;32.42;16.00;;;2.00;99.90;;;;;;5007144;28;20592;-71
2021/01/06 11:34:33;;;;;;;20.75;10.18;;;2.00;99.90;;;;;;5006262;28;20163;-72
2021/01/06 11:37:02;;;;;;;12.38;7.07;;;1.90;99.90;;;;;;5009057;28;20069;-72
2021/01/06 11:39:37;;;;;;;18.90;10.73;;;2.10;99.90;;;;;;5003766;28;20478;-72
2021/01/06 11:42:11;;;;;;;19.23;12.35;;;2.10;99.90;;;;;;5009186;28;20081;-71
2021/01/06 11:44:51;;;;;;;13.35;8.45;;;2.10;99.90;;;;;;5005574;28;20073;-71
2021/01/06 11:47:34;;;;;;;13.57;8.00;;;2.10;99.90;;;;;;5008370;28;20479;-71
2021/01/06 11:50:29;;;;;;;13.32;7.75;;;2.20;99.90;;;;;;5008617;28;20551;-71
2021/01/06 11:53:20;;;;;;;12.40;7.10;;;2.30;99.90;;;;;;5006314;28;20042;-72
2021/01/06 11:56:14;;;;;;;14.07;6.72;;;2.30;99.90;;;;;;5008959;28;20053;-72
2021/01/06 11:59:19;;;;;;;30.58;14.77;;;2.40;99.90;;;;;;5006070;28;20452;-72
2021/01/06 12:01:59;;;;;;;14.73;8.30;;;2.40;99.90;;;;;;5002296;28;20439;-72
2021/01/06 12:05:03;;;;;;;39.15;19.58;;;2.40;99.90;;;;;;5000628;28;20185;-72
2021/01/06 12:07:42;;;;;;;16.63;8.73;;;2.30;99.90;;;;;;5008342;28;20104;-72
2021/01/06 12:10:28;;;;;;;12.38;6.78;;;2.40;99.90;;;;;;5009901;28;20057;-72
2021/01/06 12:13:14;;;;;;;15.38;8.13;;;2.50;99.90;;;;;;5005718;28;20096;-72
2021/01/06 12:16:07;;;;;;;15.68;7.93;;;2.30;99.90;;;;;;5001321;28;20043;-73
2021/01/06 12:18:58;;;;;;;16.08;8.52;;;2.20;99.90;;;;;;5006110;28;20178;-72
2021/01/06 12:21:33;;;;;;;11.05;6.78;;;2.20;99.90;;;;;;5006276;28;20149;-73
2021/01/06 12:24:15;;;;;;;10.15;6.25;;;2.30;99.90;;;;;;5006907;28;20054;-72
2021/01/06 12:27:19;;;;;;;9.95;5.43;;;2.40;99.90;;;;;;5008751;28;20108;-72
2021/01/06 12:29:45;;;;;;;11.45;6.38;;;2.50;99.90;;;;;;5006367;28;20077;-72
2021/01/06 12:32:18;;;;;;;14.93;7.28;;;2.60;99.90;;;;;;5008916;28;20096;-72
2021/01/06 12:34:45;;;;;;;11.45;6.80;;;2.60;99.90;;;;;;4990051;28;20175;-72
2021/01/06 12:37:11;;;;;;;12.13;7.05;;;2.60;99.90;;;;;;5005381;28;20104;-72
2021/01/06 12:39:39;;;;;;;11.02;6.40;;;2.60;99.90;;;;;;5007058;28;20527;-72
2021/01/06 12:42:14;;;;;;;12.52;6.63;;;2.60;99.90;;;;;;5006821;28;20503;-72
2021/01/06 12:44:50;;;;;;;12.50;6.40;;;2.60;99.90;;;;;;5006654;28;20054;-72
2021/01/06 12:47:22;;;;;;;12.82;6.78;;;2.60;99.90;;;;;;5004387;28;20042;-72
2021/01/06 12:50:15;;;;;;;10.57;6.45;;;2.60;99.90;;;;;;5007301;28;20046;-72
2021/01/06 12:53:16;;;;;;;8.73;5.57;;;2.50;99.90;;;;;;5007427;28;20050;-72
2021/01/06 12:56:06;;;;;;;8.25;4.80;;;2.60;99.90;;;;;;4985605;28;20070;-72
2021/01/06 12:58:44;;;;;;;10.25;5.85;;;2.70;99.90;;;;;;5008435;28;20092;-72
2021/01/06 13:01:22;;;;;;;8.90;5.75;;;2.60;99.90;;;;;;5008453;28;20147;-72
2021/01/06 13:04:05;;;;;;;10.02;5.57;;;2.50;99.90;;;;;;5007593;28;20053;-72
2021/01/06 13:06:31;;;;;;;10.75;5.72;;;2.50;99.90;;;;;;5001329;28;20088;-73
2021/01/06 13:09:12;;;;;;;9.52;5.20;;;2.60;99.90;;;;;;5008340;28;20081;-72
2021/01/06 13:11:38;;;;;;;8.90;4.85;;;2.70;99.90;;;;;;5020940;28;20112;-72
2021/01/06 13:14:33;;;;;;;8.82;5.20;;;2.70;99.90;;;;;;5000848;28;20241;-72
2021/01/06 13:17:12;;;;;;;11.25;5.50;;;2.70;99.90;;;;;;4999586;28;20049;-72
2021/01/06 13:19:59;;;;;;;12.43;7.00;;;2.60;99.90;;;;;;5005608;28;20038;-72
2021/01/06 13:22:38;;;;;;;9.95;5.82;;;2.60;99.90;;;;;;5008600;28;20149;-72
2021/01/06 13:25:17;;;;;;;10.82;5.78;;;2.50;99.90;;;;;;5008114;28;20057;-72
2021/01/06 13:27:52;;;;;;;13.10;7.47;;;2.50;99.90;;;;;;5008059;28;20126;-71
2021/01/06 13:30:29;;;;;;;16.83;9.55;;;2.50;99.90;;;;;;5011919;28;20061;-73
2021/01/06 13:33:33;;;;;;;11.70;6.80;;;2.40;99.90;;;;;;5010540;28;20081;-72